Chisholm Hibbing Airport
KHIB : now visible

Airfield :











YOU CAN JOIN US ON...

 
LOGIN :

Register | Disclaimer

   EN    FR    IT 

 









Legend :    VFR   Marginal VFR   IFR   Intensive IFR   Very Intensive IFR
Visi :
Ceiling :
>= 8 km
>= 3000ft
5 to 8 km
1000 to 3000 ft
1500m to 5 km
500 to 1000 ft
800 to 1500m
200 to 500 ft
< 800m
< 200 ft
Symbols :   Thunderstorms  Fog  Heavy snow  Heavy precipitations  Wind > 20 kt






- Airport Elevation : 1354 ft
- IATA code : HIB


KHIB - Chisholm Hibbing

CURRENT METAR :
  • 280653Z AUTO 15004KT 10SM CLR 14/08 A2976 RMK AO2 SLP076 T01440083 TSNO

EXPIRED METARs :
  • 280553Z AUTO 16004KT 10SM CLR 14/08 A2977 RMK AO2 SLP080 T01440083 10244 20111 402441006 58003 TSNO
  • 280453Z AUTO 00000KT 10SM CLR 13/08 A2978 RMK AO2 SLP085 T01330083 TSNO

TAF KHIB
Valid from the 28 at 06:00 until the 29 at 06:00 UTC


280529Z 2806/2906 VRB03KT P6SM BKN150
FM281000 14008G17KT P6SM VCSH BKN050
FM281200 VRB04KT 5SM SHRA BR SCT040 OVC050
FM281500 14008G17KT P6SM VCSH OVC013
FM281700 13009G18KT 6SM BR SCT010 OVC016
FM290200 11005KT P6SM BKN021
KZMP FIR / North America



MET'MAP, your aeronautical weather chart ! - Copyright ORBIFLY December 2007 - Disclaimer

ORBIFLY MET'MAP TEAM :

Programming & Development : Alexandra Zaïnal
Original concept : Baudouin d'Aumeries
Technical & hardware support : Manuel Goepfert
Assistance : Marc-Olivier Méhu

Contact : metmap@orbifly.com




SOURCES & CREDITS :

   NOAA       Earth
Advisory